sensor_id;sensor_type;location;lat;lon;timestamp;P1;durP1;ratioP1;P2;durP2;ratioP2
85640;SDS011;76065;47.182;27.506;2024-03-22T00:00:13;40.85;;;17.45;;
85640;SDS011;76065;47.182;27.506;2024-03-22T00:02:39;40.67;;;16.02;;
85640;SDS011;76065;47.182;27.506;2024-03-22T00:05:04;36.30;;;15.40;;
85640;SDS011;76065;47.182;27.506;2024-03-22T00:07:30;40.65;;;17.17;;
85640;SDS011;76065;47.182;27.506;2024-03-22T00:09:56;42.58;;;16.38;;
85640;SDS011;76065;47.182;27.506;2024-03-22T00:12:22;41.88;;;16.98;;
85640;SDS011;76065;47.182;27.506;2024-03-22T00:14:48;40.22;;;16.80;;
85640;SDS011;76065;47.182;27.506;2024-03-22T00:17:14;37.33;;;17.05;;
85640;SDS011;76065;47.182;27.506;2024-03-22T00:19:39;47.80;;;19.02;;
85640;SDS011;76065;47.182;27.506;2024-03-22T00:22:05;49.50;;;18.90;;
85640;SDS011;76065;47.182;27.506;2024-03-22T00:24:30;47.10;;;19.45;;
85640;SDS011;76065;47.182;27.506;2024-03-22T00:26:56;42.47;;;16.45;;
85640;SDS011;76065;47.182;27.506;2024-03-22T00:29:22;33.92;;;15.98;;
85640;SDS011;76065;47.182;27.506;2024-03-22T00:31:47;37.10;;;15.10;;
85640;SDS011;76065;47.182;27.506;2024-03-22T00:34:13;36.50;;;15.43;;
85640;SDS011;76065;47.182;27.506;2024-03-22T00:36:38;39.45;;;15.48;;
85640;SDS011;76065;47.182;27.506;2024-03-22T00:39:04;28.95;;;13.75;;
85640;SDS011;76065;47.182;27.506;2024-03-22T00:41:30;35.47;;;13.80;;
85640;SDS011;76065;47.182;27.506;2024-03-22T00:43:57;34.63;;;15.52;;
85640;SDS011;76065;47.182;27.506;2024-03-22T00:46:23;32.97;;;15.88;;
85640;SDS011;76065;47.182;27.506;2024-03-22T00:48:48;32.05;;;14.32;;
85640;SDS011;76065;47.182;27.506;2024-03-22T00:51:14;34.10;;;14.02;;
85640;SDS011;76065;47.182;27.506;2024-03-22T00:53:40;30.63;;;15.95;;
85640;SDS011;76065;47.182;27.506;2024-03-22T00:56:06;31.52;;;14.02;;
85640;SDS011;76065;47.182;27.506;2024-03-22T00:58:31;33.40;;;15.13;;
85640;SDS011;76065;47.182;27.506;2024-03-22T01:00:58;31.63;;;14.10;;
85640;SDS011;76065;47.182;27.506;2024-03-22T01:03:24;34.22;;;15.02;;
85640;SDS011;76065;47.182;27.506;2024-03-22T01:05:49;27.70;;;12.43;;
85640;SDS011;76065;47.182;27.506;2024-03-22T01:08:15;30.08;;;12.30;;
85640;SDS011;76065;47.182;27.506;2024-03-22T01:10:41;32.72;;;14.25;;
85640;SDS011;76065;47.182;27.506;2024-03-22T01:13:07;29.33;;;13.90;;
85640;SDS011;76065;47.182;27.506;2024-03-22T01:15:33;31.90;;;13.38;;
85640;SDS011;76065;47.182;27.506;2024-03-22T01:17:59;28.33;;;13.55;;
85640;SDS011;76065;47.182;27.506;2024-03-22T01:20:24;38.38;;;15.65;;
85640;SDS011;76065;47.182;27.506;2024-03-22T01:22:50;30.88;;;13.90;;
85640;SDS011;76065;47.182;27.506;2024-03-22T01:25:15;29.35;;;14.13;;
85640;SDS011;76065;47.182;27.506;2024-03-22T01:27:41;33.67;;;14.23;;
85640;SDS011;76065;47.182;27.506;2024-03-22T01:30:07;38.17;;;15.55;;
85640;SDS011;76065;47.182;27.506;2024-03-22T01:32:34;35.58;;;15.23;;
85640;SDS011;76065;47.182;27.506;2024-03-22T01:35:00;37.58;;;14.85;;
85640;SDS011;76065;47.182;27.506;2024-03-22T01:37:26;30.08;;;13.93;;
85640;SDS011;76065;47.182;27.506;2024-03-22T01:39:52;32.05;;;13.95;;
85640;SDS011;76065;47.182;27.506;2024-03-22T01:42:17;37.65;;;14.68;;
85640;SDS011;76065;47.182;27.506;2024-03-22T01:44:43;31.42;;;14.73;;
85640;SDS011;76065;47.182;27.506;2024-03-22T01:47:09;38.38;;;15.27;;
85640;SDS011;76065;47.182;27.506;2024-03-22T01:49:35;36.60;;;15.00;;
85640;SDS011;76065;47.182;27.506;2024-03-22T01:52:01;35.45;;;15.85;;
85640;SDS011;76065;47.182;27.506;2024-03-22T01:54:28;36.47;;;14.43;;
85640;SDS011;76065;47.182;27.506;2024-03-22T01:56:55;33.78;;;14.38;;
85640;SDS011;76065;47.182;27.506;2024-03-22T01:59:21;41.55;;;16.23;;
85640;SDS011;76065;47.182;27.506;2024-03-22T02:01:47;41.55;;;16.33;;
85640;SDS011;76065;47.182;27.506;2024-03-22T02:04:14;40.10;;;16.05;;
85640;SDS011;76065;47.182;27.506;2024-03-22T02:06:40;43.97;;;16.83;;
85640;SDS011;76065;47.182;27.506;2024-03-22T02:09:07;45.20;;;17.60;;
85640;SDS011;76065;47.182;27.506;2024-03-22T02:11:34;51.03;;;17.88;;
85640;SDS011;76065;47.182;27.506;2024-03-22T02:14:02;43.33;;;17.50;;
85640;SDS011;76065;47.182;27.506;2024-03-22T02:16:29;46.95;;;17.20;;
85640;SDS011;76065;47.182;27.506;2024-03-22T02:18:55;49.63;;;18.70;;
85640;SDS011;76065;47.182;27.506;2024-03-22T02:21:21;38.28;;;16.45;;
85640;SDS011;76065;47.182;27.506;2024-03-22T02:23:46;53.08;;;20.48;;
85640;SDS011;76065;47.182;27.506;2024-03-22T02:26:12;43.65;;;15.43;;
85640;SDS011;76065;47.182;27.506;2024-03-22T02:28:38;44.10;;;16.27;;
85640;SDS011;76065;47.182;27.506;2024-03-22T02:31:03;49.90;;;16.42;;
85640;SDS011;76065;47.182;27.506;2024-03-22T02:33:29;47.47;;;15.18;;
85640;SDS011;76065;47.182;27.506;2024-03-22T02:35:55;53.85;;;15.48;;
85640;SDS011;76065;47.182;27.506;2024-03-22T02:38:21;63.58;;;16.55;;
85640;SDS011;76065;47.182;27.506;2024-03-22T02:40:48;52.58;;;17.65;;
85640;SDS011;76065;47.182;27.506;2024-03-22T02:43:15;38.42;;;15.02;;
85640;SDS011;76065;47.182;27.506;2024-03-22T02:45:42;54.13;;;16.63;;
85640;SDS011;76065;47.182;27.506;2024-03-22T02:48:08;60.35;;;17.33;;
85640;SDS011;76065;47.182;27.506;2024-03-22T02:50:34;54.40;;;16.35;;
85640;SDS011;76065;47.182;27.506;2024-03-22T02:53:00;45.80;;;17.33;;
85640;SDS011;76065;47.182;27.506;2024-03-22T02:55:26;54.58;;;18.08;;
85640;SDS011;76065;47.182;27.506;2024-03-22T02:57:52;63.00;;;18.30;;
85640;SDS011;76065;47.182;27.506;2024-03-22T03:00:18;49.63;;;17.15;;
85640;SDS011;76065;47.182;27.506;2024-03-22T03:02:44;43.17;;;15.20;;
85640;SDS011;76065;47.182;27.506;2024-03-22T03:05:11;44.88;;;14.95;;
85640;SDS011;76065;47.182;27.506;2024-03-22T03:07:36;42.17;;;15.48;;
85640;SDS011;76065;47.182;27.506;2024-03-22T03:10:02;59.78;;;17.48;;
85640;SDS011;76065;47.182;27.506;2024-03-22T03:12:28;46.78;;;14.68;;
85640;SDS011;76065;47.182;27.506;2024-03-22T03:14:53;40.00;;;15.20;;
85640;SDS011;76065;47.182;27.506;2024-03-22T03:17:19;41.22;;;15.05;;
85640;SDS011;76065;47.182;27.506;2024-03-22T03:19:44;33.05;;;14.73;;
85640;SDS011;76065;47.182;27.506;2024-03-22T03:22:10;35.75;;;16.02;;
85640;SDS011;76065;47.182;27.506;2024-03-22T03:24:36;38.55;;;15.07;;
85640;SDS011;76065;47.182;27.506;2024-03-22T03:27:01;40.35;;;14.60;;
85640;SDS011;76065;47.182;27.506;2024-03-22T03:29:28;41.15;;;15.07;;
85640;SDS011;76065;47.182;27.506;2024-03-22T03:31:53;43.80;;;15.93;;
85640;SDS011;76065;47.182;27.506;2024-03-22T03:34:19;32.50;;;14.27;;
85640;SDS011;76065;47.182;27.506;2024-03-22T03:36:45;34.08;;;13.85;;
85640;SDS011;76065;47.182;27.506;2024-03-22T03:39:11;36.08;;;14.75;;
85640;SDS011;76065;47.182;27.506;2024-03-22T03:41:37;54.67;;;17.90;;
85640;SDS011;76065;47.182;27.506;2024-03-22T03:44:03;44.38;;;19.08;;
85640;SDS011;76065;47.182;27.506;2024-03-22T03:46:28;47.65;;;17.02;;
85640;SDS011;76065;47.182;27.506;2024-03-22T03:48:54;46.08;;;16.75;;
85640;SDS011;76065;47.182;27.506;2024-03-22T03:51:19;48.63;;;17.15;;
85640;SDS011;76065;47.182;27.506;2024-03-22T03:53:45;45.92;;;17.60;;
85640;SDS011;76065;47.182;27.506;2024-03-22T03:56:11;54.10;;;17.92;;
85640;SDS011;76065;47.182;27.506;2024-03-22T03:58:36;50.08;;;16.50;;
85640;SDS011;76065;47.182;27.506;2024-03-22T04:01:05;41.38;;;17.25;;
85640;SDS011;76065;47.182;27.506;2024-03-22T04:03:31;47.55;;;16.35;;
85640;SDS011;76065;47.182;27.506;2024-03-22T04:05:57;52.03;;;16.92;;
85640;SDS011;76065;47.182;27.506;2024-03-22T04:08:24;53.13;;;18.33;;
85640;SDS011;76065;47.182;27.506;2024-03-22T04:10:51;39.95;;;17.60;;
85640;SDS011;76065;47.182;27.506;2024-03-22T04:13:18;44.30;;;17.45;;
85640;SDS011;76065;47.182;27.506;2024-03-22T04:15:43;43.35;;;16.73;;
85640;SDS011;76065;47.182;27.506;2024-03-22T04:18:09;41.83;;;16.80;;
85640;SDS011;76065;47.182;27.506;2024-03-22T04:20:35;43.17;;;16.60;;
85640;SDS011;76065;47.182;27.506;2024-03-22T04:23:00;37.17;;;16.08;;
85640;SDS011;76065;47.182;27.506;2024-03-22T04:25:26;40.38;;;17.40;;
85640;SDS011;76065;47.182;27.506;2024-03-22T04:27:51;39.50;;;16.10;;
85640;SDS011;76065;47.182;27.506;2024-03-22T04:30:17;42.17;;;17.30;;
85640;SDS011;76065;47.182;27.506;2024-03-22T04:32:45;45.70;;;16.02;;
85640;SDS011;76065;47.182;27.506;2024-03-22T04:35:11;43.53;;;17.20;;
85640;SDS011;76065;47.182;27.506;2024-03-22T04:37:37;48.13;;;18.65;;
85640;SDS011;76065;47.182;27.506;2024-03-22T04:40:03;45.85;;;17.13;;
85640;SDS011;76065;47.182;27.506;2024-03-22T04:42:29;43.10;;;16.70;;
85640;SDS011;76065;47.182;27.506;2024-03-22T04:44:54;48.65;;;18.67;;
85640;SDS011;76065;47.182;27.506;2024-03-22T04:47:20;42.40;;;17.90;;
85640;SDS011;76065;47.182;27.506;2024-03-22T04:49:46;47.50;;;18.90;;
85640;SDS011;76065;47.182;27.506;2024-03-22T04:52:11;46.13;;;16.92;;
85640;SDS011;76065;47.182;27.506;2024-03-22T04:54:37;46.00;;;18.50;;
85640;SDS011;76065;47.182;27.506;2024-03-22T04:57:02;47.35;;;17.58;;
85640;SDS011;76065;47.182;27.506;2024-03-22T04:59:28;48.67;;;18.08;;
85640;SDS011;76065;47.182;27.506;2024-03-22T05:01:54;43.75;;;17.88;;
85640;SDS011;76065;47.182;27.506;2024-03-22T05:04:19;42.72;;;16.20;;
85640;SDS011;76065;47.182;27.506;2024-03-22T05:06:45;44.83;;;17.67;;
85640;SDS011;76065;47.182;27.506;2024-03-22T05:09:11;40.63;;;16.50;;
85640;SDS011;76065;47.182;27.506;2024-03-22T05:11:36;43.05;;;17.55;;
85640;SDS011;76065;47.182;27.506;2024-03-22T05:14:02;40.22;;;15.85;;
85640;SDS011;76065;47.182;27.506;2024-03-22T05:16:28;40.70;;;16.17;;
85640;SDS011;76065;47.182;27.506;2024-03-22T05:18:54;34.83;;;16.48;;
85640;SDS011;76065;47.182;27.506;2024-03-22T05:21:19;43.92;;;18.15;;
85640;SDS011;76065;47.182;27.506;2024-03-22T05:23:45;33.95;;;15.77;;
85640;SDS011;76065;47.182;27.506;2024-03-22T05:26:11;47.45;;;18.17;;
85640;SDS011;76065;47.182;27.506;2024-03-22T05:28:36;38.55;;;15.65;;
85640;SDS011;76065;47.182;27.506;2024-03-22T05:31:02;47.70;;;16.30;;
85640;SDS011;76065;47.182;27.506;2024-03-22T05:33:28;37.75;;;14.88;;
85640;SDS011;76065;47.182;27.506;2024-03-22T05:35:53;36.25;;;15.70;;
85640;SDS011;76065;47.182;27.506;2024-03-22T05:38:19;36.10;;;15.13;;
85640;SDS011;76065;47.182;27.506;2024-03-22T05:40:44;38.55;;;16.92;;
85640;SDS011;76065;47.182;27.506;2024-03-22T05:43:12;37.85;;;14.85;;
85640;SDS011;76065;47.182;27.506;2024-03-22T05:45:38;37.63;;;15.10;;
85640;SDS011;76065;47.182;27.506;2024-03-22T05:48:04;38.28;;;15.40;;
85640;SDS011;76065;47.182;27.506;2024-03-22T05:50:30;37.47;;;15.52;;
85640;SDS011;76065;47.182;27.506;2024-03-22T05:52:56;31.02;;;15.32;;
85640;SDS011;76065;47.182;27.506;2024-03-22T05:55:22;33.38;;;15.57;;
85640;SDS011;76065;47.182;27.506;2024-03-22T05:57:47;37.15;;;16.35;;
85640;SDS011;76065;47.182;27.506;2024-03-22T06:00:13;39.40;;;18.50;;
85640;SDS011;76065;47.182;27.506;2024-03-22T06:02:39;33.92;;;15.57;;
85640;SDS011;76065;47.182;27.506;2024-03-22T06:05:05;37.47;;;17.35;;
85640;SDS011;76065;47.182;27.506;2024-03-22T06:07:30;41.22;;;17.55;;
85640;SDS011;76065;47.182;27.506;2024-03-22T06:10:04;36.08;;;17.10;;
85640;SDS011;76065;47.182;27.506;2024-03-22T06:12:30;36.15;;;15.88;;
85640;SDS011;76065;47.182;27.506;2024-03-22T06:14:56;35.85;;;16.70;;
85640;SDS011;76065;47.182;27.506;2024-03-22T06:17:21;35.20;;;15.77;;
85640;SDS011;76065;47.182;27.506;2024-03-22T06:19:47;32.10;;;15.45;;
85640;SDS011;76065;47.182;27.506;2024-03-22T06:22:13;35.45;;;14.82;;
85640;SDS011;76065;47.182;27.506;2024-03-22T06:24:38;36.47;;;15.02;;
85640;SDS011;76065;47.182;27.506;2024-03-22T06:27:05;28.92;;;13.43;;
85640;SDS011;76065;47.182;27.506;2024-03-22T06:29:30;28.70;;;12.77;;
85640;SDS011;76065;47.182;27.506;2024-03-22T06:31:56;30.88;;;15.00;;
85640;SDS011;76065;47.182;27.506;2024-03-22T06:34:22;31.65;;;14.70;;
85640;SDS011;76065;47.182;27.506;2024-03-22T06:36:47;29.70;;;13.80;;
85640;SDS011;76065;47.182;27.506;2024-03-22T06:39:13;27.52;;;14.20;;
85640;SDS011;76065;47.182;27.506;2024-03-22T06:41:39;29.40;;;13.00;;
85640;SDS011;76065;47.182;27.506;2024-03-22T06:44:05;23.63;;;12.45;;
85640;SDS011;76065;47.182;27.506;2024-03-22T06:46:31;27.80;;;14.27;;
85640;SDS011;76065;47.182;27.506;2024-03-22T06:48:57;25.67;;;13.05;;
85640;SDS011;76065;47.182;27.506;2024-03-22T06:51:23;20.08;;;10.35;;
85640;SDS011;76065;47.182;27.506;2024-03-22T06:53:48;27.65;;;13.63;;
85640;SDS011;76065;47.182;27.506;2024-03-22T06:56:14;26.50;;;12.50;;
85640;SDS011;76065;47.182;27.506;2024-03-22T06:58:40;17.95;;;10.43;;
85640;SDS011;76065;47.182;27.506;2024-03-22T07:01:05;25.42;;;11.82;;
85640;SDS011;76065;47.182;27.506;2024-03-22T07:03:31;25.75;;;11.15;;
85640;SDS011;76065;47.182;27.506;2024-03-22T07:05:57;21.35;;;9.30;;
85640;SDS011;76065;47.182;27.506;2024-03-22T07:08:23;19.15;;;9.98;;
85640;SDS011;76065;47.182;27.506;2024-03-22T07:10:51;17.48;;;10.60;;
85640;SDS011;76065;47.182;27.506;2024-03-22T07:13:20;19.00;;;11.30;;
85640;SDS011;76065;47.182;27.506;2024-03-22T07:15:46;21.20;;;10.32;;
85640;SDS011;76065;47.182;27.506;2024-03-22T07:18:13;19.30;;;11.15;;
85640;SDS011;76065;47.182;27.506;2024-03-22T07:20:39;24.35;;;10.65;;
85640;SDS011;76065;47.182;27.506;2024-03-22T07:23:06;18.98;;;10.30;;
85640;SDS011;76065;47.182;27.506;2024-03-22T07:25:32;21.30;;;10.98;;
85640;SDS011;76065;47.182;27.506;2024-03-22T07:27:57;18.05;;;10.82;;
85640;SDS011;76065;47.182;27.506;2024-03-22T07:30:24;21.20;;;10.30;;
85640;SDS011;76065;47.182;27.506;2024-03-22T07:32:50;18.30;;;9.75;;
85640;SDS011;76065;47.182;27.506;2024-03-22T07:35:15;21.23;;;10.77;;
85640;SDS011;76065;47.182;27.506;2024-03-22T07:37:41;22.92;;;11.18;;
85640;SDS011;76065;47.182;27.506;2024-03-22T07:40:07;19.40;;;10.20;;
85640;SDS011;76065;47.182;27.506;2024-03-22T07:42:32;26.33;;;11.57;;
85640;SDS011;76065;47.182;27.506;2024-03-22T07:44:58;17.55;;;10.02;;
85640;SDS011;76065;47.182;27.506;2024-03-22T07:47:24;21.90;;;9.90;;
85640;SDS011;76065;47.182;27.506;2024-03-22T07:49:50;22.25;;;10.98;;
85640;SDS011;76065;47.182;27.506;2024-03-22T07:52:16;19.92;;;9.68;;
85640;SDS011;76065;47.182;27.506;2024-03-22T07:54:41;20.08;;;9.23;;
85640;SDS011;76065;47.182;27.506;2024-03-22T07:57:07;21.75;;;10.68;;
85640;SDS011;76065;47.182;27.506;2024-03-22T07:59:32;19.10;;;9.77;;
85640;SDS011;76065;47.182;27.506;2024-03-22T08:01:58;17.73;;;8.95;;
85640;SDS011;76065;47.182;27.506;2024-03-22T08:04:24;16.70;;;10.10;;
85640;SDS011;76065;47.182;27.506;2024-03-22T08:06:52;24.48;;;13.90;;
85640;SDS011;76065;47.182;27.506;2024-03-22T08:09:18;27.63;;;13.93;;
85640;SDS011;76065;47.182;27.506;2024-03-22T08:11:44;29.45;;;13.05;;
85640;SDS011;76065;47.182;27.506;2024-03-22T08:14:10;21.80;;;11.40;;
85640;SDS011;76065;47.182;27.506;2024-03-22T08:16:36;21.08;;;9.48;;
85640;SDS011;76065;47.182;27.506;2024-03-22T08:19:01;17.13;;;8.95;;
85640;SDS011;76065;47.182;27.506;2024-03-22T08:21:27;18.65;;;8.77;;
85640;SDS011;76065;47.182;27.506;2024-03-22T08:23:53;14.05;;;8.38;;
85640;SDS011;76065;47.182;27.506;2024-03-22T08:26:18;16.95;;;9.25;;
85640;SDS011;76065;47.182;27.506;2024-03-22T08:28:47;20.38;;;9.07;;
85640;SDS011;76065;47.182;27.506;2024-03-22T08:31:13;19.27;;;9.52;;
85640;SDS011;76065;47.182;27.506;2024-03-22T08:33:39;18.30;;;9.45;;
85640;SDS011;76065;47.182;27.506;2024-03-22T08:36:05;17.30;;;9.80;;
85640;SDS011;76065;47.182;27.506;2024-03-22T08:38:31;19.50;;;10.32;;
85640;SDS011;76065;47.182;27.506;2024-03-22T08:40:56;17.02;;;9.43;;
85640;SDS011;76065;47.182;27.506;2024-03-22T08:43:22;19.05;;;10.63;;
85640;SDS011;76065;47.182;27.506;2024-03-22T08:45:51;17.95;;;9.18;;
85640;SDS011;76065;47.182;27.506;2024-03-22T08:48:17;16.80;;;9.35;;
85640;SDS011;76065;47.182;27.506;2024-03-22T08:50:43;16.20;;;8.90;;
85640;SDS011;76065;47.182;27.506;2024-03-22T08:53:09;16.90;;;9.25;;
85640;SDS011;76065;47.182;27.506;2024-03-22T08:55:34;14.20;;;8.50;;
85640;SDS011;76065;47.182;27.506;2024-03-22T08:58:00;15.32;;;8.75;;
85640;SDS011;76065;47.182;27.506;2024-03-22T09:00:26;15.20;;;7.90;;
85640;SDS011;76065;47.182;27.506;2024-03-22T09:02:52;14.05;;;7.65;;
85640;SDS011;76065;47.182;27.506;2024-03-22T09:05:17;15.70;;;7.53;;
85640;SDS011;76065;47.182;27.506;2024-03-22T09:07:44;12.43;;;7.07;;
85640;SDS011;76065;47.182;27.506;2024-03-22T09:10:09;15.85;;;7.55;;
85640;SDS011;76065;47.182;27.506;2024-03-22T09:12:36;11.73;;;7.43;;
85640;SDS011;76065;47.182;27.506;2024-03-22T09:15:02;14.18;;;7.22;;
85640;SDS011;76065;47.182;27.506;2024-03-22T09:17:28;12.77;;;8.05;;
85640;SDS011;76065;47.182;27.506;2024-03-22T09:19:54;14.45;;;8.38;;
85640;SDS011;76065;47.182;27.506;2024-03-22T09:22:19;11.85;;;7.75;;
85640;SDS011;76065;47.182;27.506;2024-03-22T09:24:45;13.43;;;7.32;;
85640;SDS011;76065;47.182;27.506;2024-03-22T09:27:11;13.63;;;8.57;;
85640;SDS011;76065;47.182;27.506;2024-03-22T09:29:36;15.40;;;8.52;;
85640;SDS011;76065;47.182;27.506;2024-03-22T09:32:02;12.88;;;7.10;;
85640;SDS011;76065;47.182;27.506;2024-03-22T09:34:28;12.32;;;7.05;;
85640;SDS011;76065;47.182;27.506;2024-03-22T09:36:57;13.48;;;8.13;;
85640;SDS011;76065;47.182;27.506;2024-03-22T09:39:23;18.40;;;9.45;;
85640;SDS011;76065;47.182;27.506;2024-03-22T09:41:48;13.93;;;7.97;;
85640;SDS011;76065;47.182;27.506;2024-03-22T09:44:17;17.58;;;8.50;;
85640;SDS011;76065;47.182;27.506;2024-03-22T09:46:44;13.93;;;6.60;;
85640;SDS011;76065;47.182;27.506;2024-03-22T09:49:12;11.38;;;7.63;;
85640;SDS011;76065;47.182;27.506;2024-03-22T09:51:42;14.40;;;7.90;;
85640;SDS011;76065;47.182;27.506;2024-03-22T09:54:09;11.85;;;7.15;;
85640;SDS011;76065;47.182;27.506;2024-03-22T09:56:37;11.57;;;7.10;;
85640;SDS011;76065;47.182;27.506;2024-03-22T09:59:07;16.02;;;8.93;;
85640;SDS011;76065;47.182;27.506;2024-03-22T10:01:34;12.90;;;7.30;;
85640;SDS011;76065;47.182;27.506;2024-03-22T10:04:00;13.10;;;6.95;;
85640;SDS011;76065;47.182;27.506;2024-03-22T10:06:26;15.38;;;7.75;;
85640;SDS011;76065;47.182;27.506;2024-03-22T10:08:51;13.00;;;8.43;;
85640;SDS011;76065;47.182;27.506;2024-03-22T10:11:17;12.88;;;6.93;;
85640;SDS011;76065;47.182;27.506;2024-03-22T10:13:43;11.95;;;7.18;;
85640;SDS011;76065;47.182;27.506;2024-03-22T10:16:10;14.73;;;7.60;;
85640;SDS011;76065;47.182;27.506;2024-03-22T10:18:36;10.90;;;7.32;;
85640;SDS011;76065;47.182;27.506;2024-03-22T10:21:02;12.43;;;6.82;;
85640;SDS011;76065;47.182;27.506;2024-03-22T10:23:29;11.00;;;6.78;;
85640;SDS011;76065;47.182;27.506;2024-03-22T10:25:58;11.65;;;6.78;;
85640;SDS011;76065;47.182;27.506;2024-03-22T10:28:27;13.25;;;8.57;;
85640;SDS011;76065;47.182;27.506;2024-03-22T10:30:53;12.05;;;7.47;;
85640;SDS011;76065;47.182;27.506;2024-03-22T10:33:19;12.80;;;7.85;;
85640;SDS011;76065;47.182;27.506;2024-03-22T10:35:51;11.25;;;7.30;;
85640;SDS011;76065;47.182;27.506;2024-03-22T10:38:21;13.38;;;7.43;;
85640;SDS011;76065;47.182;27.506;2024-03-22T10:40:47;13.93;;;8.57;;
85640;SDS011;76065;47.182;27.506;2024-03-22T10:43:16;10.38;;;7.20;;
85640;SDS011;76065;47.182;27.506;2024-03-22T10:45:43;9.63;;;6.72;;
85640;SDS011;76065;47.182;27.506;2024-03-22T10:48:13;12.75;;;6.88;;
85640;SDS011;76065;47.182;27.506;2024-03-22T10:50:43;9.85;;;6.65;;
85640;SDS011;76065;47.182;27.506;2024-03-22T10:53:09;13.73;;;8.52;;
85640;SDS011;76065;47.182;27.506;2024-03-22T10:55:41;13.02;;;7.85;;
85640;SDS011;76065;47.182;27.506;2024-03-22T10:58:18;13.38;;;7.90;;
85640;SDS011;76065;47.182;27.506;2024-03-22T11:00:47;15.18;;;7.70;;
85640;SDS011;76065;47.182;27.506;2024-03-22T11:03:16;12.93;;;8.30;;
85640;SDS011;76065;47.182;27.506;2024-03-22T11:05:45;16.20;;;8.63;;
85640;SDS011;76065;47.182;27.506;2024-03-22T11:08:12;11.95;;;8.00;;
85640;SDS011;76065;47.182;27.506;2024-03-22T11:10:38;12.57;;;7.55;;
85640;SDS011;76065;47.182;27.506;2024-03-22T11:13:04;12.52;;;7.18;;
85640;SDS011;76065;47.182;27.506;2024-03-22T11:15:32;13.73;;;7.63;;
85640;SDS011;76065;47.182;27.506;2024-03-22T11:17:58;11.07;;;6.75;;
85640;SDS011;76065;47.182;27.506;2024-03-22T11:20:25;15.00;;;7.43;;
85640;SDS011;76065;47.182;27.506;2024-03-22T11:22:52;13.57;;;6.57;;
85640;SDS011;76065;47.182;27.506;2024-03-22T11:25:18;9.98;;;6.22;;
85640;SDS011;76065;47.182;27.506;2024-03-22T11:27:44;10.85;;;6.50;;
85640;SDS011;76065;47.182;27.506;2024-03-22T11:30:10;9.48;;;6.68;;
85640;SDS011;76065;47.182;27.506;2024-03-22T11:32:36;11.10;;;6.40;;
85640;SDS011;76065;47.182;27.506;2024-03-22T11:35:10;12.93;;;7.65;;
85640;SDS011;76065;47.182;27.506;2024-03-22T11:37:38;21.33;;;11.90;;
85640;SDS011;76065;47.182;27.506;2024-03-22T11:40:04;13.40;;;6.60;;
85640;SDS011;76065;47.182;27.506;2024-03-22T11:42:32;12.27;;;6.43;;
85640;SDS011;76065;47.182;27.506;2024-03-22T11:45:00;9.45;;;5.60;;
85640;SDS011;76065;47.182;27.506;2024-03-22T11:47:27;10.43;;;5.93;;
85640;SDS011;76065;47.182;27.506;2024-03-22T11:49:53;10.82;;;7.60;;
85640;SDS011;76065;47.182;27.506;2024-03-22T11:52:27;11.65;;;6.90;;
85640;SDS011;76065;47.182;27.506;2024-03-22T11:54:53;11.57;;;7.35;;
85640;SDS011;76065;47.182;27.506;2024-03-22T11:57:22;15.07;;;7.32;;
85640;SDS011;76065;47.182;27.506;2024-03-22T11:59:48;10.30;;;6.82;;
85640;SDS011;76065;47.182;27.506;2024-03-22T12:02:14;12.20;;;7.13;;
85640;SDS011;76065;47.182;27.506;2024-03-22T12:04:41;12.38;;;7.03;;
85640;SDS011;76065;47.182;27.506;2024-03-22T12:07:13;11.65;;;7.15;;
85640;SDS011;76065;47.182;27.506;2024-03-22T12:09:43;12.20;;;5.97;;
85640;SDS011;76065;47.182;27.506;2024-03-22T12:12:09;12.23;;;7.00;;
85640;SDS011;76065;47.182;27.506;2024-03-22T12:14:36;13.00;;;7.47;;
85640;SDS011;76065;47.182;27.506;2024-03-22T12:17:02;10.88;;;7.05;;
85640;SDS011;76065;47.182;27.506;2024-03-22T12:19:28;12.45;;;7.40;;
85640;SDS011;76065;47.182;27.506;2024-03-22T12:21:54;15.25;;;9.35;;
85640;SDS011;76065;47.182;27.506;2024-03-22T12:24:20;10.77;;;6.88;;
85640;SDS011;76065;47.182;27.506;2024-03-22T12:26:47;12.07;;;7.72;;
85640;SDS011;76065;47.182;27.506;2024-03-22T12:29:13;12.80;;;7.25;;
85640;SDS011;76065;47.182;27.506;2024-03-22T12:31:40;11.57;;;7.57;;
85640;SDS011;76065;47.182;27.506;2024-03-22T12:34:06;12.23;;;7.60;;
85640;SDS011;76065;47.182;27.506;2024-03-22T12:36:32;12.95;;;7.55;;
85640;SDS011;76065;47.182;27.506;2024-03-22T12:38:57;13.63;;;8.07;;
85640;SDS011;76065;47.182;27.506;2024-03-22T12:41:29;14.10;;;7.45;;
85640;SDS011;76065;47.182;27.506;2024-03-22T12:43:56;11.10;;;6.88;;
85640;SDS011;76065;47.182;27.506;2024-03-22T12:46:22;11.88;;;6.90;;
85640;SDS011;76065;47.182;27.506;2024-03-22T12:48:47;15.98;;;8.35;;
85640;SDS011;76065;47.182;27.506;2024-03-22T12:51:13;15.07;;;7.50;;
85640;SDS011;76065;47.182;27.506;2024-03-22T12:53:39;14.68;;;8.15;;
85640;SDS011;76065;47.182;27.506;2024-03-22T12:56:05;14.15;;;7.57;;
85640;SDS011;76065;47.182;27.506;2024-03-22T12:58:31;15.68;;;9.52;;
85640;SDS011;76065;47.182;27.506;2024-03-22T13:00:57;12.73;;;8.25;;
85640;SDS011;76065;47.182;27.506;2024-03-22T13:03:25;19.13;;;9.40;;
85640;SDS011;76065;47.182;27.506;2024-03-22T13:05:50;16.48;;;8.80;;
85640;SDS011;76065;47.182;27.506;2024-03-22T13:08:16;12.23;;;6.45;;
85640;SDS011;76065;47.182;27.506;2024-03-22T13:10:42;12.85;;;7.95;;
85640;SDS011;76065;47.182;27.506;2024-03-22T13:13:09;11.80;;;7.20;;
85640;SDS011;76065;47.182;27.506;2024-03-22T13:15:35;11.90;;;7.15;;
85640;SDS011;76065;47.182;27.506;2024-03-22T13:18:05;10.02;;;6.75;;
85640;SDS011;76065;47.182;27.506;2024-03-22T13:20:32;11.45;;;6.43;;
85640;SDS011;76065;47.182;27.506;2024-03-22T13:22:58;14.73;;;7.38;;
85640;SDS011;76065;47.182;27.506;2024-03-22T13:25:24;11.93;;;7.25;;
85640;SDS011;76065;47.182;27.506;2024-03-22T13:27:51;12.77;;;6.97;;
85640;SDS011;76065;47.182;27.506;2024-03-22T13:30:16;11.05;;;6.30;;
85640;SDS011;76065;47.182;27.506;2024-03-22T13:32:42;8.43;;;5.18;;
85640;SDS011;76065;47.182;27.506;2024-03-22T13:35:07;9.45;;;5.97;;
85640;SDS011;76065;47.182;27.506;2024-03-22T13:37:33;11.15;;;6.45;;
85640;SDS011;76065;47.182;27.506;2024-03-22T13:39:59;9.27;;;5.22;;
85640;SDS011;76065;47.182;27.506;2024-03-22T13:42:25;11.45;;;6.65;;
85640;SDS011;76065;47.182;27.506;2024-03-22T13:44:51;9.07;;;5.97;;
85640;SDS011;76065;47.182;27.506;2024-03-22T13:47:17;14.82;;;5.78;;
85640;SDS011;76065;47.182;27.506;2024-03-22T13:49:43;8.63;;;6.05;;
85640;SDS011;76065;47.182;27.506;2024-03-22T13:52:10;10.13;;;6.28;;
85640;SDS011;76065;47.182;27.506;2024-03-22T13:54:36;7.32;;;5.25;;
85640;SDS011;76065;47.182;27.506;2024-03-22T13:57:02;9.93;;;5.13;;
85640;SDS011;76065;47.182;27.506;2024-03-22T13:59:28;9.50;;;5.70;;
85640;SDS011;76065;47.182;27.506;2024-03-22T14:01:54;10.85;;;6.07;;
85640;SDS011;76065;47.182;27.506;2024-03-22T14:04:24;12.10;;;7.32;;
85640;SDS011;76065;47.182;27.506;2024-03-22T14:06:51;11.52;;;6.50;;
85640;SDS011;76065;47.182;27.506;2024-03-22T14:09:17;8.75;;;5.72;;